createdAt,value
2019-03-24T00:02:21.573Z,6.67
2019-03-24T00:07:29.201Z,8.00
2019-03-24T00:12:36.869Z,6.47
2019-03-24T00:17:44.390Z,5.00
2019-03-24T00:22:52.115Z,6.03
2019-03-24T00:27:59.936Z,4.83
2019-03-24T00:33:08.552Z,4.43
2019-03-24T00:38:16.196Z,4.40
2019-03-24T00:43:24.136Z,4.30
2019-03-24T00:48:31.718Z,3.50
2019-03-24T00:53:39.580Z,4.60
2019-03-24T00:58:47.829Z,4.43
2019-03-24T01:03:55.484Z,5.30
2019-03-24T01:09:04.382Z,3.20
2019-03-24T01:14:12.544Z,10.08
2019-03-24T01:19:20.270Z,6.27
2019-03-24T01:24:28.209Z,2.97
2019-03-24T01:29:37.058Z,3.53
2019-03-24T01:34:44.780Z,2.47
2019-03-24T01:39:53.371Z,2.83
2019-03-24T01:45:01.179Z,2.80
2019-03-24T01:50:09.533Z,3.07
2019-03-24T01:55:17.370Z,2.50
2019-03-24T02:00:25.117Z,2.37
2019-03-24T02:05:32.729Z,3.17
2019-03-24T02:10:41.798Z,2.73
2019-03-24T02:15:49.964Z,3.63
2019-03-24T02:20:57.605Z,3.53
2019-03-24T02:26:06.573Z,3.67
2019-03-24T02:31:14.608Z,4.90
2019-03-24T02:36:22.486Z,3.50
2019-03-24T02:41:30.351Z,5.00
2019-03-24T02:46:38.156Z,5.63
2019-03-24T02:51:46.066Z,3.30
2019-03-24T02:56:54.007Z,2.93
2019-03-24T03:02:01.680Z,4.10
2019-03-24T03:07:09.330Z,3.63
2019-03-24T03:12:16.933Z,3.98
2019-03-24T03:17:24.556Z,3.27
2019-03-24T03:22:32.187Z,3.13
2019-03-24T03:27:40.035Z,3.00
2019-03-24T03:32:47.878Z,3.47
2019-03-24T03:37:55.646Z,3.20
2019-03-24T03:43:03.753Z,3.43
2019-03-24T03:48:11.558Z,2.90
2019-03-24T03:53:19.190Z,3.37
2019-03-24T03:58:26.927Z,3.13
2019-03-24T04:03:34.648Z,4.27
2019-03-24T04:08:42.287Z,2.77
2019-03-24T04:13:51.413Z,7.17
2019-03-24T04:18:59.010Z,11.30
2019-03-24T04:24:06.850Z,18.20
2019-03-24T04:29:14.582Z,2.90
2019-03-24T04:34:23.248Z,10.20
2019-03-24T04:39:30.873Z,2.90
2019-03-24T04:44:38.600Z,3.30
2019-03-24T04:49:46.257Z,2.77
2019-03-24T04:54:54.348Z,2.97
2019-03-24T05:00:02.370Z,3.10
2019-03-24T05:05:12.297Z,2.87
2019-03-24T05:10:29.094Z,2.77
2019-03-24T05:15:37.344Z,2.53
2019-03-24T05:20:48.812Z,3.00
2019-03-24T05:25:56.398Z,2.80
2019-03-24T05:31:04.112Z,3.13
2019-03-24T05:36:11.630Z,2.90
2019-03-24T05:41:19.506Z,2.60
2019-03-24T05:46:27.183Z,2.70
2019-03-24T05:51:34.845Z,3.23
2019-03-24T05:56:42.518Z,9.33
2019-03-24T06:01:50.106Z,6.37
2019-03-24T06:06:58.889Z,3.37
2019-03-24T06:12:06.736Z,4.80
2019-03-24T06:17:14.546Z,3.13
2019-03-24T06:22:22.204Z,2.63
2019-03-24T06:27:36.523Z,3.30
2019-03-24T06:32:44.245Z,3.73
2019-03-24T06:37:51.974Z,3.07
2019-03-24T06:42:59.618Z,2.97
2019-03-24T06:48:07.396Z,3.10
2019-03-24T06:53:16.038Z,3.47
2019-03-24T06:58:23.640Z,2.53
2019-03-24T07:03:32.747Z,3.53
2019-03-24T07:08:40.574Z,4.43
2019-03-24T07:13:48.197Z,6.97
2019-03-24T07:18:55.853Z,14.17
2019-03-24T07:24:03.623Z,26.13
2019-03-24T07:29:11.929Z,5.27
2019-03-24T07:34:19.578Z,24.37
2019-03-24T07:39:28.231Z,3.90
2019-03-24T07:44:35.877Z,6.60
2019-03-24T07:49:43.678Z,6.90
2019-03-24T07:54:51.286Z,11.13
2019-03-24T07:59:58.924Z,3.73
2019-03-24T08:05:07.099Z,4.03
2019-03-24T08:10:16.241Z,5.30
2019-03-24T08:15:23.845Z,2.80
2019-03-24T08:20:31.674Z,4.67
2019-03-24T08:25:39.331Z,3.50
2019-03-24T08:30:48.044Z,5.60
2019-03-24T08:35:55.644Z,3.97
2019-03-24T08:41:03.396Z,3.47
2019-03-24T08:46:12.256Z,6.57
2019-03-24T08:51:20.829Z,3.75
2019-03-24T08:56:28.465Z,2.77
2019-03-24T09:01:36.245Z,3.20
2019-03-24T09:06:43.867Z,4.03
2019-03-24T09:11:51.480Z,6.57
2019-03-24T09:16:59.412Z,3.40
2019-03-24T09:22:07.139Z,6.03
2019-03-24T09:27:14.946Z,4.73
2019-03-24T09:32:22.786Z,2.97
2019-03-24T09:37:30.880Z,4.63
2019-03-24T09:42:38.391Z,5.63
2019-03-24T09:47:46.019Z,3.20
2019-03-24T09:52:53.827Z,4.00
2019-03-24T09:58:01.465Z,3.23
2019-03-24T10:03:09.110Z,3.20
2019-03-24T10:08:16.658Z,4.67
2019-03-24T10:13:24.420Z,2.70
2019-03-24T10:18:32.032Z,3.43
2019-03-24T10:23:40.499Z,3.20
2019-03-24T10:28:48.125Z,2.57
2019-03-24T10:33:56.281Z,5.23
2019-03-24T10:39:05.987Z,5.10
2019-03-24T10:44:13.620Z,4.13
2019-03-24T10:49:25.153Z,3.53
2019-03-24T10:54:30.791Z,3.40
2019-03-24T10:59:38.458Z,5.50
2019-03-24T11:04:46.117Z,3.47
2019-03-24T11:09:53.768Z,9.10
2019-03-24T11:15:01.538Z,4.97
2019-03-24T11:20:10.844Z,7.43
2019-03-24T11:25:18.801Z,3.47
2019-03-24T11:30:26.473Z,7.63
2019-03-24T11:35:34.255Z,6.30
2019-03-24T11:40:41.938Z,3.27
2019-03-24T11:45:49.596Z,3.87
2019-03-24T11:50:57.489Z,10.33
2019-03-24T11:56:05.154Z,5.20
2019-03-24T12:01:13.642Z,8.30
2019-03-24T12:06:21.296Z,4.70
2019-03-24T12:11:29.058Z,2.43
2019-03-24T12:16:36.928Z,14.77
2019-03-24T12:21:44.591Z,4.77
2019-03-24T12:26:52.258Z,5.03
2019-03-24T12:31:59.948Z,5.87
2019-03-24T12:37:07.598Z,5.20
2019-03-24T12:42:15.253Z,6.47
2019-03-24T12:47:22.962Z,6.43
2019-03-24T12:52:30.634Z,7.40
2019-03-24T12:57:38.363Z,5.73
2019-03-24T13:02:46.663Z,3.57
2019-03-24T13:07:54.314Z,4.20
2019-03-24T13:13:02.155Z,3.33
2019-03-24T13:18:09.907Z,8.67
2019-03-24T13:23:17.895Z,7.17
2019-03-24T13:28:25.755Z,2.90
2019-03-24T13:33:33.420Z,2.80
2019-03-24T13:38:41.189Z,3.33
2019-03-24T13:43:49.071Z,15.97
2019-03-24T13:48:56.728Z,4.00
2019-03-24T13:54:04.320Z,3.37
2019-03-24T13:59:12.398Z,4.50
2019-03-24T14:04:20.028Z,3.60
2019-03-24T14:09:27.878Z,3.90
2019-03-24T14:14:35.524Z,4.10
2019-03-24T14:19:43.212Z,3.70
2019-03-24T14:24:50.855Z,4.60
2019-03-24T14:29:58.470Z,15.90
2019-03-24T14:35:07.034Z,8.83
2019-03-24T14:40:16.962Z,6.60
2019-03-24T14:45:24.609Z,4.33
2019-03-24T14:50:32.177Z,6.33
2019-03-24T14:55:39.847Z,6.23
2019-03-24T15:00:47.936Z,2.97
2019-03-24T15:05:55.709Z,3.33
2019-03-24T15:11:03.337Z,3.87
2019-03-24T15:16:10.972Z,4.37
2019-03-24T15:21:19.641Z,5.10
2019-03-24T15:26:28.469Z,5.97
2019-03-24T15:31:36.153Z,7.07
2019-03-24T15:36:44.144Z,14.87
2019-03-24T15:41:51.833Z,2.67
2019-03-24T15:46:59.728Z,3.20
2019-03-24T15:52:07.475Z,6.17
2019-03-24T15:57:15.225Z,9.50
2019-03-24T16:02:22.983Z,8.17
2019-03-24T16:07:30.802Z,4.50
2019-03-24T16:12:38.452Z,6.50
2019-03-24T16:17:46.170Z,6.80
2019-03-24T16:22:53.808Z,9.43
2019-03-24T16:28:01.988Z,4.87
2019-03-24T16:33:09.952Z,6.10
2019-03-24T16:38:17.756Z,2.83
2019-03-24T16:43:25.494Z,3.30
2019-03-24T16:48:37.052Z,5.93
2019-03-24T16:53:42.523Z,3.40
2019-03-24T16:58:50.326Z,2.90
2019-03-24T17:03:58.058Z,6.13
2019-03-24T17:09:07.855Z,4.20
2019-03-24T17:14:15.765Z,5.47
2019-03-24T17:19:23.420Z,7.25
2019-03-24T17:24:32.083Z,6.27
2019-03-24T17:29:39.838Z,5.40
2019-03-24T17:34:48.005Z,9.13
2019-03-24T17:39:55.624Z,4.07
2019-03-24T17:45:03.283Z,3.80
2019-03-24T17:50:12.213Z,17.37
2019-03-24T17:55:27.517Z,30.63
2019-03-24T18:00:38.831Z,19.70
2019-03-24T18:05:46.465Z,17.52
2019-03-24T18:10:54.223Z,9.00
2019-03-24T18:16:02.100Z,10.43
2019-03-24T18:21:09.671Z,8.50
2019-03-24T18:26:17.564Z,6.70
2019-03-24T18:31:26.373Z,12.77
2019-03-24T18:36:34.281Z,8.30
2019-03-24T18:41:41.937Z,13.43
2019-03-24T18:46:49.629Z,10.90
2019-03-24T18:51:57.394Z,7.90
2019-03-24T18:57:05.021Z,9.73
2019-03-24T19:02:12.749Z,5.30
2019-03-24T19:07:20.441Z,8.80
2019-03-24T19:12:28.560Z,5.17
2019-03-24T19:17:36.185Z,5.10
2019-03-24T19:22:43.840Z,20.43
2019-03-24T19:27:51.874Z,21.93
2019-03-24T19:32:59.638Z,34.23
2019-03-24T19:38:07.875Z,17.13
2019-03-24T19:43:15.485Z,17.43
2019-03-24T19:48:24.199Z,25.17
2019-03-24T19:53:31.927Z,19.10
2019-03-24T19:58:39.585Z,12.70
2019-03-24T20:03:47.335Z,12.83
2019-03-24T20:08:55.014Z,7.93
2019-03-24T20:14:03.056Z,6.33
2019-03-24T20:19:11.137Z,6.90
2019-03-24T20:24:19.273Z,6.93
2019-03-24T20:29:27.307Z,6.10
2019-03-24T20:34:35.124Z,5.87
2019-03-24T20:39:43.409Z,5.40
2019-03-24T20:44:53.123Z,7.40
2019-03-24T20:50:03.769Z,12.60
2019-03-24T20:55:12.339Z,37.15
2019-03-24T21:00:31.223Z,35.63
2019-03-24T21:05:38.943Z,65.60
2019-03-24T21:10:46.645Z,62.57
2019-03-24T21:15:54.514Z,28.67
2019-03-24T21:21:02.182Z,34.37
2019-03-24T21:26:11.225Z,17.73
2019-03-24T21:31:20.086Z,12.47
2019-03-24T21:36:27.721Z,24.13
2019-03-24T21:41:35.549Z,16.07
2019-03-24T21:46:43.252Z,17.00
2019-03-24T21:51:50.931Z,7.43
2019-03-24T21:56:58.739Z,5.80
2019-03-24T22:02:10.218Z,4.90
2019-03-24T22:07:17.888Z,5.47
2019-03-24T22:12:25.744Z,7.23
2019-03-24T22:17:33.457Z,9.10
2019-03-24T22:22:41.600Z,73.27
2019-03-24T22:27:49.260Z,18.83
2019-03-24T22:32:56.902Z,27.03
2019-03-24T22:38:04.739Z,26.40
2019-03-24T22:43:12.415Z,21.40
2019-03-24T22:48:20.065Z,11.13
2019-03-24T22:53:27.694Z,23.07
2019-03-24T22:58:35.352Z,14.00
2019-03-24T23:03:43.557Z,8.47
2019-03-24T23:08:51.410Z,8.83
2019-03-24T23:13:59.082Z,8.03
2019-03-24T23:19:07.517Z,7.40
2019-03-24T23:24:16.117Z,6.58
2019-03-24T23:29:23.911Z,6.97
2019-03-24T23:34:31.611Z,5.13
2019-03-24T23:39:39.249Z,6.87
2019-03-24T23:44:48.302Z,7.23
2019-03-24T23:49:56.085Z,6.30
2019-03-24T23:55:04.039Z,13.00
